createdAt,value
2022-10-18T00:00:38.404Z,86.30
2022-10-18T00:03:35.016Z,86.22
2022-10-18T00:06:12.361Z,86.24
2022-10-18T00:08:48.264Z,86.32
2022-10-18T00:11:24.073Z,86.39
2022-10-18T00:14:01.889Z,86.25
2022-10-18T00:16:37.773Z,86.11
2022-10-18T00:19:13.850Z,86.11
2022-10-18T00:21:52.558Z,86.20
2022-10-18T00:24:28.486Z,86.18
2022-10-18T00:27:04.370Z,86.16
2022-10-18T00:29:40.225Z,86.36
2022-10-18T00:32:16.079Z,86.40
2022-10-18T00:34:52.300Z,86.40
2022-10-18T00:37:28.826Z,86.37
2022-10-18T00:40:05.537Z,86.42
2022-10-18T00:42:42.259Z,86.53
2022-10-18T00:45:29.313Z,86.49
2022-10-18T00:48:07.898Z,86.46
2022-10-18T00:50:45.607Z,86.47
2022-10-18T00:53:25.329Z,86.32
2022-10-18T00:56:01.776Z,86.31
2022-10-18T00:58:38.858Z,86.31
2022-10-18T01:01:14.673Z,86.30
2022-10-18T01:03:52.129Z,86.38
2022-10-18T01:06:30.159Z,86.41
2022-10-18T01:09:26.935Z,86.36
2022-10-18T01:12:29.817Z,86.40
2022-10-18T01:15:17.449Z,86.38
2022-10-18T01:18:09.558Z,86.45
2022-10-18T01:21:26.235Z,86.54
2022-10-18T01:24:40.886Z,86.54
2022-10-18T01:27:48.397Z,86.83
2022-10-18T01:30:58.238Z,86.87
2022-10-18T01:33:43.007Z,86.93
2022-10-18T01:36:28.329Z,86.86
2022-10-18T01:39:12.161Z,86.80
2022-10-18T01:41:50.954Z,86.85
2022-10-18T01:44:33.060Z,86.96
2022-10-18T01:47:14.469Z,87.02
2022-10-18T01:49:50.227Z,87.00
2022-10-18T01:52:26.078Z,86.94
2022-10-18T01:55:04.529Z,87.00
2022-10-18T01:57:47.449Z,87.10
2022-10-18T02:00:30.261Z,87.16
2022-10-18T02:03:15.853Z,87.18
2022-10-18T02:06:00.244Z,87.34
2022-10-18T02:08:44.813Z,87.30
2022-10-18T02:11:21.966Z,87.34
2022-10-18T02:14:05.441Z,87.33
2022-10-18T02:16:49.211Z,87.37
2022-10-18T02:19:32.113Z,87.39
2022-10-18T02:22:11.801Z,87.52
2022-10-18T02:24:52.448Z,87.65
2022-10-18T02:27:28.524Z,87.71
2022-10-18T02:30:04.837Z,87.67
2022-10-18T02:32:50.586Z,87.75
2022-10-18T02:35:34.172Z,87.67
2022-10-18T02:38:13.423Z,87.60
2022-10-18T02:40:49.186Z,87.50
2022-10-18T02:43:28.350Z,87.42
2022-10-18T02:46:04.131Z,87.49
2022-10-18T02:48:39.979Z,87.49
2022-10-18T02:51:15.771Z,87.42
2022-10-18T02:53:51.932Z,87.35
2022-10-18T02:56:27.798Z,87.34
2022-10-18T02:59:05.759Z,87.25
2022-10-18T03:01:41.588Z,87.36
2022-10-18T03:04:17.541Z,87.50
2022-10-18T03:06:53.454Z,87.33
2022-10-18T03:09:29.605Z,87.30
2022-10-18T03:12:05.559Z,87.37
2022-10-18T03:14:41.365Z,87.27
2022-10-18T03:17:17.297Z,87.17
2022-10-18T03:19:53.404Z,87.14
2022-10-18T03:25:11.518Z,87.21
2022-10-18T03:27:47.332Z,87.20
2022-10-18T03:30:23.370Z,87.17
2022-10-18T03:32:59.652Z,87.13
2022-10-18T03:35:35.663Z,87.00
2022-10-18T03:38:11.402Z,87.06
2022-10-18T03:40:47.241Z,86.96
2022-10-18T03:43:22.969Z,86.90
2022-10-18T03:45:59.134Z,86.89
2022-10-18T03:48:35.177Z,86.82
2022-10-18T03:51:11.378Z,86.73
2022-10-18T03:53:47.239Z,86.93
2022-10-18T03:56:22.996Z,87.10
2022-10-18T03:58:58.760Z,87.07
2022-10-18T04:01:34.711Z,87.07
2022-10-18T04:04:10.627Z,87.06
2022-10-18T04:06:46.441Z,86.93
2022-10-18T04:09:22.304Z,86.95
2022-10-18T04:11:58.089Z,87.01
2022-10-18T04:14:33.967Z,87.01
2022-10-18T04:17:09.687Z,87.04
2022-10-18T04:19:45.687Z,87.10
2022-10-18T04:22:21.667Z,87.25
2022-10-18T04:24:57.895Z,87.49
2022-10-18T04:27:34.174Z,87.64
2022-10-18T04:30:13.130Z,87.92
2022-10-18T04:32:48.878Z,88.10
2022-10-18T04:35:26.050Z,88.22
2022-10-18T04:38:01.838Z,88.30
2022-10-18T04:40:37.928Z,88.32
2022-10-18T04:43:13.811Z,88.26
2022-10-18T04:45:51.180Z,88.21
2022-10-18T04:48:27.319Z,88.27
2022-10-18T04:51:03.082Z,88.28
2022-10-18T04:53:39.012Z,88.07
2022-10-18T04:56:15.111Z,88.06
2022-10-18T04:58:51.061Z,88.10
2022-10-18T05:01:26.892Z,88.10
2022-10-18T05:04:02.767Z,87.90
2022-10-18T05:06:38.489Z,87.83
2022-10-18T05:09:15.355Z,87.77
2022-10-18T05:11:51.435Z,87.71
2022-10-18T05:14:27.366Z,87.67
2022-10-18T05:17:03.173Z,87.60
2022-10-18T05:19:39.120Z,87.52
2022-10-18T05:22:14.997Z,87.57
2022-10-18T05:24:50.749Z,87.59
2022-10-18T05:27:26.546Z,87.41
2022-10-18T05:30:05.401Z,87.34
2022-10-18T05:32:41.765Z,87.27
2022-10-18T05:35:17.558Z,87.25
2022-10-18T05:37:53.278Z,87.29
2022-10-18T05:40:29.033Z,87.33
2022-10-18T05:43:04.983Z,87.31
2022-10-18T05:45:40.728Z,87.22
2022-10-18T05:48:16.593Z,87.23
2022-10-18T05:50:52.470Z,87.27
2022-10-18T05:53:37.464Z,87.44
2022-10-18T05:56:14.860Z,87.61
2022-10-18T05:58:54.215Z,87.73
2022-10-18T06:01:29.914Z,87.89
2022-10-18T06:04:05.912Z,88.00
2022-10-18T06:06:42.632Z,88.08
2022-10-18T06:09:18.510Z,87.90
2022-10-18T06:11:54.523Z,87.87
2022-10-18T06:14:30.686Z,87.81
2022-10-18T06:17:06.817Z,87.91
2022-10-18T06:19:44.358Z,87.89
2022-10-18T06:22:20.205Z,87.82
2022-10-18T06:24:57.230Z,87.76
2022-10-18T06:27:34.963Z,87.69
2022-10-18T06:30:15.642Z,87.69
2022-10-18T06:32:51.596Z,87.55
2022-10-18T06:35:27.595Z,87.30
2022-10-18T06:38:03.376Z,87.13
2022-10-18T06:40:39.259Z,86.92
2022-10-18T06:43:21.185Z,86.64
2022-10-18T06:45:58.288Z,86.30
2022-10-18T06:48:35.119Z,85.81
2022-10-18T06:51:13.078Z,84.84
2022-10-18T06:54:05.906Z,83.73
2022-10-18T06:56:45.087Z,82.41
2022-10-18T06:59:21.388Z,81.53
2022-10-18T07:01:57.207Z,80.14
2022-10-18T07:04:35.213Z,78.76
2022-10-18T07:07:10.880Z,77.29
2022-10-18T07:09:48.043Z,75.94
2022-10-18T07:12:23.977Z,75.42
2022-10-18T07:14:59.750Z,73.64
2022-10-18T07:17:35.584Z,72.40
2022-10-18T07:20:13.343Z,71.30
2022-10-18T07:22:49.198Z,71.08
2022-10-18T07:25:28.471Z,69.86
2022-10-18T07:28:06.686Z,68.01
2022-10-18T07:30:42.721Z,67.81
2022-10-18T07:33:20.046Z,66.66
2022-10-18T07:35:55.943Z,65.27
2022-10-18T07:38:31.883Z,64.18
2022-10-18T07:41:11.352Z,63.35
2022-10-18T07:43:51.899Z,62.19
2022-10-18T07:46:27.885Z,61.32
2022-10-18T07:49:04.275Z,60.21
2022-10-18T07:51:40.099Z,59.75
2022-10-18T07:54:15.887Z,59.14
2022-10-18T07:56:51.636Z,58.91
2022-10-18T07:59:28.021Z,58.21
2022-10-18T08:02:03.862Z,56.99
2022-10-18T08:04:39.558Z,56.44
2022-10-18T08:07:15.492Z,56.06
2022-10-18T08:09:51.318Z,55.28
2022-10-18T08:12:27.374Z,55.04
2022-10-18T08:15:03.799Z,54.05
2022-10-18T08:17:40.007Z,54.10
2022-10-18T08:20:29.754Z,52.88
2022-10-18T08:23:08.302Z,53.04
2022-10-18T08:25:43.986Z,52.68
2022-10-18T08:28:20.004Z,52.44
2022-10-18T08:30:55.956Z,51.63
2022-10-18T08:33:31.812Z,51.29
2022-10-18T08:36:12.974Z,51.50
2022-10-18T08:38:49.424Z,51.37
2022-10-18T08:41:56.397Z,51.37
2022-10-18T08:44:34.840Z,50.43
2022-10-18T08:47:18.353Z,50.19
2022-10-18T08:50:00.823Z,50.28
2022-10-18T08:52:54.732Z,50.37
2022-10-18T08:55:39.000Z,50.12
2022-10-18T08:58:22.854Z,49.87
2022-10-18T09:01:21.274Z,49.57
2022-10-18T09:04:39.303Z,48.56
2022-10-18T09:07:57.732Z,49.27
2022-10-18T09:10:52.921Z,49.73
2022-10-18T09:14:00.733Z,49.70
2022-10-18T09:16:52.663Z,48.82
2022-10-18T09:20:01.417Z,49.36
2022-10-18T09:22:54.886Z,49.25
2022-10-18T09:25:44.340Z,48.89
2022-10-18T09:28:48.285Z,49.24
2022-10-18T09:31:41.904Z,49.15
2022-10-18T09:34:32.552Z,49.42
2022-10-18T09:37:15.922Z,49.62
2022-10-18T09:40:01.091Z,50.22
2022-10-18T09:42:43.960Z,49.92
2022-10-18T09:45:32.144Z,50.14
2022-10-18T09:48:19.232Z,50.41
2022-10-18T09:51:03.603Z,50.43
2022-10-18T09:53:53.062Z,50.76
2022-10-18T09:56:40.922Z,50.76
2022-10-18T09:59:39.568Z,50.85
2022-10-18T10:02:22.306Z,50.33
2022-10-18T10:04:58.432Z,50.63
2022-10-18T10:07:44.624Z,50.56
2022-10-18T10:10:26.883Z,50.18
2022-10-18T10:13:22.462Z,50.93
2022-10-18T10:16:04.412Z,50.29
2022-10-18T10:18:43.754Z,50.54
2022-10-18T10:21:21.857Z,50.59
2022-10-18T10:24:00.658Z,50.37
2022-10-18T10:26:39.000Z,50.27
2022-10-18T10:30:00.391Z,49.92
2022-10-18T10:32:51.648Z,49.70
2022-10-18T10:35:53.940Z,49.70
2022-10-18T10:38:32.571Z,49.49
2022-10-18T10:41:21.329Z,49.51
2022-10-18T10:43:57.854Z,48.65
2022-10-18T10:46:39.526Z,48.59
2022-10-18T10:49:39.822Z,48.27
2022-10-18T10:52:37.322Z,48.09
2022-10-18T10:55:35.232Z,48.11
2022-10-18T10:58:20.752Z,47.41
2022-10-18T11:00:58.791Z,47.18
2022-10-18T11:03:36.131Z,47.74
2022-10-18T11:06:51.294Z,48.69
2022-10-18T11:09:51.380Z,48.52
2022-10-18T11:12:39.313Z,48.28
2022-10-18T11:15:32.732Z,47.61
2022-10-18T11:18:23.010Z,47.34
2022-10-18T11:21:07.971Z,47.17
2022-10-18T11:23:46.500Z,46.58
2022-10-18T11:26:47.890Z,46.47
2022-10-18T11:29:49.350Z,46.20
2022-10-18T11:32:35.839Z,45.74
2022-10-18T11:35:38.876Z,45.89
2022-10-18T11:38:37.120Z,46.22
2022-10-18T11:41:42.185Z,45.94
2022-10-18T11:44:33.585Z,45.70
2022-10-18T11:47:21.744Z,46.22
2022-10-18T11:50:17.499Z,45.23
2022-10-18T11:53:11.105Z,45.47
2022-10-18T11:56:09.212Z,45.59
2022-10-18T11:59:11.198Z,45.27
2022-10-18T12:02:10.421Z,45.10
2022-10-18T12:05:18.884Z,44.35
2022-10-18T12:08:03.390Z,44.22
2022-10-18T12:10:45.970Z,43.60
2022-10-18T12:13:48.531Z,43.20
2022-10-18T12:16:49.900Z,43.60
2022-10-18T12:19:29.563Z,42.45
2022-10-18T12:22:19.467Z,40.92
2022-10-18T12:25:02.735Z,41.13
2022-10-18T12:27:51.498Z,41.83
2022-10-18T12:30:42.364Z,42.26
2022-10-18T12:33:28.556Z,42.24
2022-10-18T12:36:34.227Z,41.85
2022-10-18T12:39:27.281Z,41.75
2022-10-18T12:42:27.477Z,41.50
2022-10-18T12:45:27.863Z,41.88
2022-10-18T12:48:08.958Z,41.66
2022-10-18T12:50:59.000Z,41.41
2022-10-18T12:53:36.693Z,41.86
2022-10-18T12:56:47.718Z,42.17
2022-10-18T12:59:56.040Z,42.32
2022-10-18T13:02:34.623Z,41.90
2022-10-18T13:06:06.410Z,41.93
2022-10-18T13:08:48.324Z,41.88
2022-10-18T13:11:36.946Z,42.06
2022-10-18T13:15:20.823Z,42.75
2022-10-18T13:18:08.047Z,42.18
2022-10-18T13:20:56.597Z,42.17
2022-10-18T13:23:56.293Z,42.58
2022-10-18T13:26:59.165Z,42.54
2022-10-18T13:30:28.644Z,42.50
2022-10-18T13:33:30.385Z,42.65
2022-10-18T13:36:23.063Z,42.62
2022-10-18T13:39:19.743Z,42.49
2022-10-18T13:42:36.018Z,42.14
2022-10-18T13:45:57.111Z,42.41
2022-10-18T13:48:54.836Z,42.41
2022-10-18T13:52:02.678Z,42.54
2022-10-18T13:55:16.743Z,42.49
2022-10-18T13:58:08.004Z,43.11
2022-10-18T14:01:11.470Z,42.81
2022-10-18T14:04:43.634Z,43.28
2022-10-18T14:07:23.324Z,43.60
2022-10-18T14:10:04.067Z,43.55
2022-10-18T14:12:48.906Z,43.64
2022-10-18T14:15:33.885Z,43.55
2022-10-18T14:18:22.317Z,43.78
2022-10-18T14:21:13.909Z,43.93
2022-10-18T14:23:51.730Z,44.20
2022-10-18T14:26:29.398Z,44.24
2022-10-18T14:29:21.523Z,44.30
2022-10-18T14:32:00.250Z,44.70
2022-10-18T14:34:37.098Z,44.72
2022-10-18T14:37:27.196Z,45.17
2022-10-18T14:40:03.685Z,45.38
2022-10-18T14:42:49.262Z,45.58
2022-10-18T14:45:27.535Z,45.66
2022-10-18T14:48:22.067Z,46.10
2022-10-18T14:51:09.023Z,46.18
2022-10-18T14:53:45.382Z,46.51
2022-10-18T14:56:31.160Z,46.87
2022-10-18T14:59:17.280Z,47.14
2022-10-18T15:02:05.909Z,47.25
2022-10-18T15:04:44.737Z,47.89
2022-10-18T15:07:22.553Z,48.46
2022-10-18T15:10:01.707Z,49.17
2022-10-18T15:12:57.778Z,49.04
2022-10-18T15:15:38.815Z,49.26
2022-10-18T15:18:26.512Z,49.78
2022-10-18T15:21:25.798Z,49.88
2022-10-18T15:24:32.787Z,50.39
2022-10-18T15:27:26.458Z,50.59
2022-10-18T15:30:11.106Z,51.01
2022-10-18T15:32:56.475Z,51.29
2022-10-18T15:35:36.854Z,51.64
2022-10-18T15:38:32.125Z,51.87
2022-10-18T15:41:44.637Z,52.28
2022-10-18T15:44:32.301Z,52.58
2022-10-18T15:47:24.971Z,53.06
2022-10-18T15:50:02.428Z,53.54
2022-10-18T15:52:44.332Z,53.66
2022-10-18T15:55:53.654Z,54.12
2022-10-18T15:58:39.151Z,54.83
2022-10-18T16:01:27.300Z,55.23
2022-10-18T16:04:08.938Z,55.75
2022-10-18T16:06:44.989Z,56.18
2022-10-18T16:09:24.253Z,56.48
2022-10-18T16:12:00.544Z,56.78
2022-10-18T16:14:37.351Z,56.85
2022-10-18T16:17:17.776Z,56.95
2022-10-18T16:19:53.661Z,57.38
2022-10-18T16:22:32.223Z,57.84
2022-10-18T16:25:13.305Z,58.07
2022-10-18T16:27:49.309Z,58.27
2022-10-18T16:30:29.498Z,58.50
2022-10-18T16:33:07.542Z,58.78
2022-10-18T16:35:43.448Z,59.05
2022-10-18T16:38:35.475Z,59.30
2022-10-18T16:41:13.386Z,59.67
2022-10-18T16:43:51.411Z,60.04
2022-10-18T16:46:31.402Z,60.27
2022-10-18T16:49:08.481Z,60.71
2022-10-18T16:51:44.338Z,60.75
2022-10-18T16:54:20.392Z,60.84
2022-10-18T16:56:56.294Z,61.12
2022-10-18T16:59:34.326Z,61.36
2022-10-18T17:02:12.121Z,61.60
2022-10-18T17:04:47.949Z,61.76
2022-10-18T17:07:27.650Z,61.91
2022-10-18T17:10:03.610Z,62.20
2022-10-18T17:12:39.514Z,62.60
2022-10-18T17:15:16.367Z,62.67
2022-10-18T17:17:52.603Z,62.84
2022-10-18T17:20:30.149Z,63.43
2022-10-18T17:23:06.052Z,63.87
2022-10-18T17:25:57.540Z,64.10
2022-10-18T17:28:41.229Z,64.36
2022-10-18T17:31:18.976Z,64.49
2022-10-18T17:33:55.504Z,64.59
2022-10-18T17:36:32.226Z,64.77
2022-10-18T17:39:10.432Z,64.97
2022-10-18T17:41:46.529Z,64.97
2022-10-18T17:44:22.698Z,64.98
2022-10-18T17:47:00.137Z,65.19
2022-10-18T17:49:36.218Z,64.89
2022-10-18T17:52:12.304Z,64.53
2022-10-18T17:54:48.196Z,64.46
2022-10-18T17:57:24.186Z,64.27
2022-10-18T17:59:59.987Z,63.97
2022-10-18T18:02:38.359Z,63.82
2022-10-18T18:05:17.074Z,63.69
2022-10-18T18:07:52.810Z,63.63
2022-10-18T18:10:29.712Z,63.55
2022-10-18T18:13:05.889Z,63.38
2022-10-18T18:15:41.799Z,63.26
2022-10-18T18:18:17.776Z,63.15
2022-10-18T18:20:57.103Z,62.93
2022-10-18T18:23:33.464Z,62.64
2022-10-18T18:26:09.537Z,62.47
2022-10-18T18:28:45.935Z,62.20
2022-10-18T18:31:25.351Z,62.01
2022-10-18T18:34:03.241Z,61.95
2022-10-18T18:36:39.707Z,61.95
2022-10-18T18:39:24.550Z,61.73
2022-10-18T18:42:01.783Z,61.81
2022-10-18T18:44:38.334Z,61.74
2022-10-18T18:47:14.824Z,61.81
2022-10-18T18:49:51.739Z,61.65
2022-10-18T18:52:27.727Z,61.54
2022-10-18T18:55:03.786Z,61.65
2022-10-18T18:57:39.725Z,61.55
2022-10-18T19:00:19.024Z,61.64
2022-10-18T19:02:55.054Z,61.74
2022-10-18T19:05:32.219Z,61.76
2022-10-18T19:08:09.263Z,61.79
2022-10-18T19:10:49.271Z,61.85
2022-10-18T19:13:25.124Z,61.87
2022-10-18T19:16:27.385Z,61.88
2022-10-18T19:19:07.841Z,61.97
2022-10-18T19:21:48.190Z,62.09
2022-10-18T19:24:26.593Z,62.00
2022-10-18T19:27:05.895Z,62.02
2022-10-18T19:29:43.929Z,62.07
2022-10-18T19:32:20.479Z,62.16
2022-10-18T19:34:56.705Z,62.26
2022-10-18T19:37:32.962Z,62.32
2022-10-18T19:40:11.968Z,62.28
2022-10-18T19:42:48.017Z,62.31
2022-10-18T19:45:23.985Z,62.52
2022-10-18T19:47:59.758Z,62.58
2022-10-18T19:50:38.117Z,62.53
2022-10-18T19:53:14.199Z,62.66
2022-10-18T19:55:50.591Z,62.69
2022-10-18T19:58:26.654Z,62.76
2022-10-18T20:01:03.115Z,62.84
2022-10-18T20:03:39.339Z,62.97
2022-10-18T20:06:16.594Z,63.20
2022-10-18T20:08:53.637Z,63.38
2022-10-18T20:11:31.578Z,63.51
2022-10-18T20:14:09.626Z,63.67
2022-10-18T20:16:45.667Z,63.90
2022-10-18T20:19:22.023Z,64.10
2022-10-18T20:21:58.930Z,64.27
2022-10-18T20:24:34.893Z,64.40
2022-10-18T20:27:10.975Z,64.48
2022-10-18T20:29:47.959Z,64.69
2022-10-18T20:32:23.875Z,65.96
2022-10-18T20:34:59.709Z,68.61
2022-10-18T20:37:35.644Z,69.86
2022-10-18T20:40:15.632Z,70.57
2022-10-18T20:42:56.232Z,70.87
2022-10-18T20:45:33.940Z,71.72
2022-10-18T20:48:10.262Z,72.55
2022-10-18T20:50:47.698Z,73.03
2022-10-18T20:53:24.474Z,73.40
2022-10-18T20:56:10.532Z,73.82
2022-10-18T20:58:48.507Z,74.65
2022-10-18T21:01:28.463Z,75.24
2022-10-18T21:04:08.546Z,75.91
2022-10-18T21:06:46.265Z,76.53
2022-10-18T21:09:23.625Z,76.99
2022-10-18T21:11:59.432Z,77.65
2022-10-18T21:14:35.275Z,78.47
2022-10-18T21:17:11.167Z,78.86
2022-10-18T21:19:46.918Z,79.43
2022-10-18T21:22:22.730Z,79.75
2022-10-18T21:24:58.448Z,80.14
2022-10-18T21:27:34.220Z,80.54
2022-10-18T21:32:53.697Z,80.90
2022-10-18T21:35:29.876Z,81.19
2022-10-18T21:38:05.928Z,81.29
2022-10-18T21:40:44.682Z,81.51
2022-10-18T21:43:20.473Z,81.53
2022-10-18T21:46:02.966Z,81.62
2022-10-18T21:48:39.093Z,81.75
2022-10-18T21:51:17.762Z,81.98
2022-10-18T21:53:56.172Z,82.03
2022-10-18T21:56:34.867Z,82.24
2022-10-18T21:59:12.334Z,82.53
2022-10-18T22:01:48.218Z,82.52
2022-10-18T22:04:26.719Z,82.56
2022-10-18T22:07:02.689Z,82.60
2022-10-18T22:09:38.582Z,82.66
2022-10-18T22:12:14.404Z,82.75
2022-10-18T22:14:50.317Z,82.76
2022-10-18T22:17:26.308Z,82.72
2022-10-18T22:20:01.953Z,82.72
2022-10-18T22:22:37.702Z,82.72
2022-10-18T22:25:14.472Z,82.69
2022-10-18T22:27:50.255Z,82.73
2022-10-18T22:30:26.130Z,82.79
2022-10-18T22:33:02.385Z,82.68
2022-10-18T22:35:38.639Z,82.62
2022-10-18T22:38:14.346Z,82.69
2022-10-18T22:40:50.130Z,82.78
2022-10-18T22:43:25.817Z,82.78
2022-10-18T22:46:05.045Z,82.91
2022-10-18T22:48:41.153Z,83.07
2022-10-18T22:51:17.390Z,83.10
2022-10-18T22:53:53.488Z,83.10
2022-10-18T22:56:29.463Z,83.14
2022-10-18T22:59:05.299Z,83.29
2022-10-18T23:01:42.071Z,83.38
2022-10-18T23:04:17.830Z,83.49
2022-10-18T23:06:53.493Z,83.50
2022-10-18T23:09:29.288Z,83.48
2022-10-18T23:12:05.046Z,83.49
2022-10-18T23:14:40.646Z,83.60
2022-10-18T23:17:16.359Z,83.57
2022-10-18T23:19:52.009Z,83.58
2022-10-18T23:22:27.655Z,83.51
2022-10-18T23:25:03.310Z,83.54
2022-10-18T23:27:38.984Z,83.48
2022-10-18T23:30:16.709Z,83.46
2022-10-18T23:32:52.638Z,83.40
2022-10-18T23:35:28.875Z,83.39
2022-10-18T23:38:04.647Z,83.40
2022-10-18T23:40:40.395Z,83.56
2022-10-18T23:43:16.054Z,83.64
2022-10-18T23:45:51.734Z,83.70
2022-10-18T23:48:27.899Z,83.79
2022-10-18T23:51:04.670Z,83.81
2022-10-18T23:53:41.205Z,83.90
2022-10-18T23:56:18.946Z,83.93
2022-10-18T23:58:54.700Z,84.08
